createdAt,value
2023-01-11T00:00:24.744Z,7.34
2023-01-11T00:01:24.736Z,7.34
2023-01-11T00:02:24.828Z,7.39
2023-01-11T00:03:24.715Z,7.39
2023-01-11T00:04:24.850Z,7.44
2023-01-11T00:05:24.688Z,7.41
2023-01-11T00:06:24.714Z,7.41
2023-01-11T00:07:24.689Z,7.42
2023-01-11T00:08:24.652Z,7.42
2023-01-11T00:09:24.665Z,7.47
2023-01-11T00:10:24.635Z,7.45
2023-01-11T00:11:24.625Z,7.45
2023-01-11T00:12:24.762Z,7.44
2023-01-11T00:13:24.600Z,7.48
2023-01-11T00:14:24.603Z,7.50
2023-01-11T00:15:24.581Z,7.50
2023-01-11T00:16:24.626Z,7.48
2023-01-11T00:17:24.559Z,7.50
2023-01-11T00:18:24.554Z,7.50
2023-01-11T00:19:24.540Z,7.50
2023-01-11T00:20:24.570Z,7.51
2023-01-11T00:21:24.514Z,7.50
2023-01-11T00:22:24.505Z,7.50
2023-01-11T00:23:24.495Z,7.52
2023-01-11T00:24:24.502Z,7.55
2023-01-11T00:25:24.469Z,7.57
2023-01-11T00:26:24.467Z,7.57
2023-01-11T00:27:24.447Z,7.58
2023-01-11T00:28:24.435Z,7.60
2023-01-11T00:29:24.430Z,7.62
2023-01-11T00:30:24.419Z,7.63
2023-01-11T00:31:24.527Z,7.62
2023-01-11T00:32:24.395Z,7.66
2023-01-11T00:33:24.386Z,7.67
2023-01-11T00:34:24.372Z,7.66
2023-01-11T00:35:24.358Z,7.66
2023-01-11T00:36:24.379Z,7.67
2023-01-11T00:37:24.336Z,7.63
2023-01-11T00:38:24.326Z,7.63
2023-01-11T00:39:24.314Z,7.69
2023-01-11T00:40:24.349Z,7.70
2023-01-11T00:41:24.293Z,7.70
2023-01-11T00:42:24.279Z,7.73
2023-01-11T00:43:24.272Z,7.76
2023-01-11T00:44:24.267Z,7.77
2023-01-11T00:45:24.252Z,7.76
2023-01-11T00:46:24.382Z,7.76
2023-01-11T00:47:24.225Z,7.76
2023-01-11T00:48:24.227Z,7.77
2023-01-11T00:49:24.208Z,7.84
2023-01-11T00:50:24.206Z,7.84
2023-01-11T00:51:24.182Z,7.81
2023-01-11T00:52:24.197Z,7.82
2023-01-11T00:53:24.160Z,7.84
2023-01-11T00:54:24.153Z,7.85
2023-01-11T00:55:24.140Z,7.86
2023-01-11T00:56:24.131Z,7.88
2023-01-11T00:57:24.166Z,7.86
2023-01-11T00:58:24.102Z,7.88
2023-01-11T00:59:24.095Z,7.85
2023-01-11T01:00:24.085Z,7.89
2023-01-11T01:01:24.100Z,7.89
2023-01-11T01:02:24.098Z,7.91
2023-01-11T01:03:24.053Z,7.92
2023-01-11T01:04:24.043Z,7.95
2023-01-11T01:05:24.036Z,7.96
2023-01-11T01:06:24.066Z,7.99
2023-01-11T01:07:24.015Z,8.00
2023-01-11T01:08:24.179Z,7.99
2023-01-11T01:09:23.995Z,8.00
2023-01-11T01:10:23.974Z,8.02
2023-01-11T01:11:23.968Z,8.00
2023-01-11T01:12:23.958Z,8.02
2023-01-11T01:13:23.944Z,8.02
2023-01-11T01:14:23.930Z,8.03
2023-01-11T01:15:23.923Z,8.03
2023-01-11T01:16:23.911Z,8.06
2023-01-11T01:17:23.899Z,8.06
2023-01-11T01:18:23.884Z,8.06
2023-01-11T01:19:23.876Z,8.03
2023-01-11T01:20:23.884Z,8.07
2023-01-11T01:21:23.853Z,8.10
2023-01-11T01:22:23.840Z,8.09
2023-01-11T01:23:23.832Z,8.13
2023-01-11T01:24:23.847Z,8.12
2023-01-11T01:25:23.817Z,8.17
2023-01-11T01:26:23.801Z,8.13
2023-01-11T01:27:23.802Z,8.13
2023-01-11T01:28:23.780Z,8.17
2023-01-11T01:29:23.770Z,8.17
2023-01-11T01:30:23.755Z,8.18
2023-01-11T01:31:23.771Z,8.18
2023-01-11T01:32:23.732Z,8.21
2023-01-11T01:33:23.727Z,8.21
2023-01-11T01:34:23.709Z,8.22
2023-01-11T01:35:23.701Z,8.24
2023-01-11T01:36:23.690Z,8.21
2023-01-11T01:37:23.679Z,8.24
2023-01-11T01:38:23.667Z,8.27
2023-01-11T01:39:23.653Z,8.27
2023-01-11T01:40:23.677Z,8.27
2023-01-11T01:41:23.634Z,8.25
2023-01-11T01:42:23.624Z,8.27
2023-01-11T01:43:23.616Z,8.27
2023-01-11T01:44:23.614Z,8.25
2023-01-11T01:45:23.592Z,8.28
2023-01-11T01:46:23.740Z,8.27
2023-01-11T01:47:23.571Z,8.28
2023-01-11T01:48:23.562Z,8.28
2023-01-11T01:49:23.546Z,8.29
2023-01-11T01:50:23.550Z,8.29
2023-01-11T01:51:23.525Z,8.31
2023-01-11T01:52:23.514Z,8.31
2023-01-11T01:53:23.504Z,8.31
2023-01-11T01:54:23.508Z,8.31
2023-01-11T01:55:23.481Z,8.32
2023-01-11T01:56:23.494Z,8.34
2023-01-11T01:57:23.462Z,8.32
2023-01-11T01:58:23.449Z,8.32
2023-01-11T01:59:23.455Z,8.34
2023-01-11T02:00:23.427Z,8.39
2023-01-11T02:01:23.487Z,8.36
2023-01-11T02:02:23.490Z,8.36
2023-01-11T02:03:23.391Z,8.37
2023-01-11T02:04:23.381Z,8.37
2023-01-11T02:05:23.375Z,8.34
2023-01-11T02:06:23.407Z,8.39
2023-01-11T02:07:23.349Z,8.43
2023-01-11T02:08:23.338Z,8.40
2023-01-11T02:09:23.336Z,8.42
2023-01-11T02:10:23.322Z,8.40
2023-01-11T02:11:23.307Z,8.40
2023-01-11T02:12:23.335Z,8.43
2023-01-11T02:13:23.282Z,8.46
2023-01-11T02:14:23.273Z,8.46
2023-01-11T02:15:23.260Z,8.46
2023-01-11T02:16:23.301Z,8.47
2023-01-11T02:17:23.243Z,8.46
2023-01-11T02:18:23.233Z,8.43
2023-01-11T02:19:23.216Z,8.45
2023-01-11T02:20:23.212Z,8.45
2023-01-11T02:21:23.260Z,8.47
2023-01-11T02:22:23.192Z,8.46
2023-01-11T02:23:23.167Z,8.46
2023-01-11T02:24:23.162Z,8.49
2023-01-11T02:25:23.151Z,8.50
2023-01-11T02:26:23.144Z,8.50
2023-01-11T02:27:23.136Z,8.49
2023-01-11T02:28:23.140Z,8.49
2023-01-11T02:29:23.108Z,8.52
2023-01-11T02:30:23.120Z,8.55
2023-01-11T02:31:23.154Z,8.55
2023-01-11T02:32:23.079Z,8.58
2023-01-11T02:33:23.064Z,8.63
2023-01-11T02:34:23.052Z,8.63
2023-01-11T02:35:23.043Z,8.64
2023-01-11T02:36:23.032Z,8.65
2023-01-11T02:37:23.036Z,8.63
2023-01-11T02:38:23.031Z,8.68
2023-01-11T02:39:22.999Z,8.68
2023-01-11T02:40:22.997Z,8.64
2023-01-11T02:41:22.993Z,8.70
2023-01-11T02:42:22.966Z,8.71
2023-01-11T02:43:22.955Z,8.71
2023-01-11T02:44:22.968Z,8.73
2023-01-11T02:45:22.930Z,8.71
2023-01-11T02:46:23.037Z,8.73
2023-01-11T02:47:22.924Z,8.76
2023-01-11T02:48:22.903Z,8.75
2023-01-11T02:49:22.888Z,8.78
2023-01-11T02:50:22.879Z,8.76
2023-01-11T02:51:22.865Z,8.73
2023-01-11T02:52:22.858Z,8.75
2023-01-11T02:53:22.845Z,8.76
2023-01-11T02:54:22.837Z,8.78
2023-01-11T02:55:22.831Z,8.80
2023-01-11T02:56:22.813Z,8.79
2023-01-11T02:57:22.810Z,8.80
2023-01-11T02:58:22.788Z,8.82
2023-01-11T02:59:22.789Z,8.80
2023-01-11T03:00:22.790Z,8.83
2023-01-11T03:01:23.011Z,8.82
2023-01-11T03:02:22.776Z,8.85
2023-01-11T03:03:22.741Z,8.85
2023-01-11T03:04:22.719Z,8.86
2023-01-11T03:05:22.709Z,8.89
2023-01-11T03:06:22.775Z,8.88
2023-01-11T03:07:22.687Z,8.88
2023-01-11T03:08:22.681Z,8.88
2023-01-11T03:09:22.668Z,8.86
2023-01-11T03:10:22.655Z,8.88
2023-01-11T03:11:22.641Z,8.91
2023-01-11T03:12:22.639Z,8.89
2023-01-11T03:13:22.620Z,8.89
2023-01-11T03:14:22.610Z,8.91
2023-01-11T03:15:22.596Z,8.93
2023-01-11T03:16:22.639Z,8.93
2023-01-11T03:17:22.583Z,8.89
2023-01-11T03:18:22.565Z,8.89
2023-01-11T03:19:22.552Z,8.88
2023-01-11T03:20:22.541Z,8.89
2023-01-11T03:21:22.533Z,8.93
2023-01-11T03:22:22.524Z,8.93
2023-01-11T03:23:22.524Z,8.94
2023-01-11T03:24:22.499Z,8.97
2023-01-11T03:25:22.483Z,8.96
2023-01-11T03:26:22.480Z,8.96
2023-01-11T03:27:22.476Z,8.96
2023-01-11T03:28:22.463Z,8.96
2023-01-11T03:29:22.448Z,8.97
2023-01-11T03:30:22.443Z,8.96
2023-01-11T03:31:22.475Z,8.98
2023-01-11T03:32:22.435Z,8.98
2023-01-11T03:33:22.394Z,8.98
2023-01-11T03:34:22.393Z,8.98
2023-01-11T03:35:22.375Z,9.00
2023-01-11T03:36:22.365Z,8.96
2023-01-11T03:37:22.354Z,9.00
2023-01-11T03:38:22.347Z,9.03
2023-01-11T03:39:22.327Z,9.03
2023-01-11T03:40:22.324Z,9.01
2023-01-11T03:41:22.317Z,9.03
2023-01-11T03:42:22.294Z,9.04
2023-01-11T03:43:22.291Z,9.03
2023-01-11T03:44:22.281Z,9.03
2023-01-11T03:45:22.265Z,9.06
2023-01-11T03:46:22.365Z,9.03
2023-01-11T03:47:22.246Z,9.03
2023-01-11T03:48:22.262Z,9.04
2023-01-11T03:49:22.216Z,9.04
2023-01-11T03:50:22.205Z,9.04
2023-01-11T03:51:22.202Z,9.06
2023-01-11T03:52:22.187Z,9.04
2023-01-11T03:53:22.172Z,9.06
2023-01-11T03:54:22.166Z,9.06
2023-01-11T03:55:22.152Z,9.06
2023-01-11T03:56:22.147Z,9.06
2023-01-11T03:57:22.126Z,9.12
2023-01-11T03:58:22.121Z,9.13
2023-01-11T03:59:22.103Z,9.13
2023-01-11T04:00:22.097Z,9.15
2023-01-11T04:01:22.080Z,9.15
2023-01-11T04:02:22.071Z,9.16
2023-01-11T04:03:22.060Z,9.16
2023-01-11T04:04:22.125Z,9.19
2023-01-11T04:05:22.047Z,9.17
2023-01-11T04:06:22.080Z,9.17
2023-01-11T04:07:22.016Z,9.22
2023-01-11T04:08:22.004Z,9.19
2023-01-11T04:09:22.001Z,9.19
2023-01-11T04:10:21.979Z,9.23
2023-01-11T04:11:21.980Z,9.22
2023-01-11T04:12:21.961Z,9.20
2023-01-11T04:13:21.945Z,9.19
2023-01-11T04:14:21.947Z,9.22
2023-01-11T04:15:21.930Z,9.23
2023-01-11T04:16:22.006Z,9.17
2023-01-11T04:17:21.904Z,9.17
2023-01-11T04:18:21.894Z,9.17
2023-01-11T04:19:21.881Z,9.19
2023-01-11T04:20:21.893Z,9.19
2023-01-11T04:21:21.866Z,9.22
2023-01-11T04:22:21.854Z,9.19
2023-01-11T04:23:21.867Z,9.20
2023-01-11T04:24:21.851Z,9.20
2023-01-11T04:25:21.812Z,9.22
2023-01-11T04:26:21.805Z,9.22
2023-01-11T04:27:21.796Z,9.23
2023-01-11T04:28:21.785Z,9.24
2023-01-11T04:29:21.770Z,9.24
2023-01-11T04:30:21.798Z,9.22
2023-01-11T04:31:21.897Z,9.24
2023-01-11T04:32:21.741Z,9.24
2023-01-11T04:33:21.725Z,9.24
2023-01-11T04:34:21.715Z,9.24
2023-01-11T04:35:21.707Z,9.24
2023-01-11T04:36:21.721Z,9.27
2023-01-11T04:37:21.679Z,9.30
2023-01-11T04:38:21.675Z,9.30
2023-01-11T04:39:21.663Z,9.35
2023-01-11T04:40:21.655Z,9.35
2023-01-11T04:41:23.521Z,9.38
2023-01-11T04:42:21.628Z,9.40
2023-01-11T04:43:21.612Z,9.45
2023-01-11T04:44:21.603Z,9.42
2023-01-11T04:45:21.617Z,9.42
2023-01-11T04:46:21.636Z,9.41
2023-01-11T04:47:21.580Z,9.42
2023-01-11T04:48:21.565Z,9.42
2023-01-11T04:49:21.545Z,9.41
2023-01-11T04:50:21.561Z,9.42
2023-01-11T04:51:21.534Z,9.41
2023-01-11T04:52:21.535Z,9.42
2023-01-11T04:53:21.497Z,9.42
2023-01-11T04:54:21.546Z,9.41
2023-01-11T04:55:21.475Z,9.42
2023-01-11T04:56:21.510Z,9.48
2023-01-11T04:57:21.458Z,9.50
2023-01-11T04:58:21.447Z,9.49
2023-01-11T04:59:21.440Z,9.49
2023-01-11T05:00:21.433Z,9.52
2023-01-11T05:01:21.466Z,9.53
2023-01-11T05:02:21.416Z,9.52
2023-01-11T05:03:21.391Z,9.50
2023-01-11T05:04:21.423Z,9.53
2023-01-11T05:05:21.367Z,9.56
2023-01-11T05:06:21.390Z,9.56
2023-01-11T05:07:21.350Z,9.55
2023-01-11T05:08:21.376Z,9.55
2023-01-11T05:09:21.381Z,9.55
2023-01-11T05:10:21.330Z,9.56
2023-01-11T05:11:21.349Z,9.56
2023-01-11T05:12:21.334Z,9.56
2023-01-11T05:13:21.304Z,9.58
2023-01-11T05:14:21.281Z,9.62
2023-01-11T05:15:21.254Z,9.63
2023-01-11T05:16:21.284Z,9.62
2023-01-11T05:17:21.233Z,9.65
2023-01-11T05:18:21.227Z,9.68
2023-01-11T05:19:21.214Z,9.65
2023-01-11T05:20:21.202Z,9.67
2023-01-11T05:21:21.196Z,9.67
2023-01-11T05:22:21.189Z,9.71
2023-01-11T05:23:21.166Z,9.70
2023-01-11T05:24:21.177Z,9.68
2023-01-11T05:25:21.177Z,9.73
2023-01-11T05:26:21.154Z,9.74
2023-01-11T05:27:21.185Z,9.73
2023-01-11T05:28:21.143Z,9.74
2023-01-11T05:29:21.118Z,9.75
2023-01-11T05:30:21.121Z,9.78
2023-01-11T05:31:21.158Z,9.77
2023-01-11T05:32:21.082Z,9.80
2023-01-11T05:33:21.056Z,9.80
2023-01-11T05:34:21.055Z,9.81
2023-01-11T05:35:21.036Z,9.78
2023-01-11T05:36:21.024Z,9.75
2023-01-11T05:37:21.030Z,9.78
2023-01-11T05:38:21.179Z,9.78
2023-01-11T05:39:20.991Z,9.81
2023-01-11T05:40:21.005Z,9.83
2023-01-11T05:41:20.969Z,9.83
2023-01-11T05:42:22.225Z,9.83
2023-01-11T05:43:20.995Z,9.83
2023-01-11T05:44:20.939Z,9.86
2023-01-11T05:45:20.925Z,9.80
2023-01-11T05:46:20.912Z,9.85
2023-01-11T05:47:20.896Z,9.83
2023-01-11T05:48:20.900Z,9.85
2023-01-11T05:49:20.881Z,9.83
2023-01-11T05:50:20.877Z,9.85
2023-01-11T05:51:20.858Z,9.83
2023-01-11T05:52:20.944Z,9.88
2023-01-11T05:53:20.865Z,9.88
2023-01-11T05:54:20.830Z,9.89
2023-01-11T05:55:20.841Z,9.91
2023-01-11T05:56:20.850Z,9.89
2023-01-11T05:57:20.803Z,9.89
2023-01-11T05:58:20.777Z,9.92
2023-01-11T05:59:21.029Z,9.93
2023-01-11T06:00:21.333Z,9.89
2023-01-11T06:01:21.030Z,9.89
2023-01-11T06:02:21.263Z,9.93
2023-01-11T06:03:20.759Z,9.93
2023-01-11T06:04:20.730Z,9.99
2023-01-11T06:05:20.736Z,9.95
2023-01-11T06:06:20.695Z,9.96
2023-01-11T06:07:20.683Z,9.96
2023-01-11T06:08:20.666Z,9.98
2023-01-11T06:09:20.663Z,9.98
2023-01-11T06:10:20.644Z,9.98
2023-01-11T06:11:20.636Z,9.99
2023-01-11T06:12:20.661Z,10.01
2023-01-11T06:13:20.613Z,10.01
2023-01-11T06:14:20.634Z,10.02
2023-01-11T06:15:20.605Z,10.01
2023-01-11T06:16:20.643Z,10.01
2023-01-11T06:17:20.575Z,10.02
2023-01-11T06:18:20.554Z,10.02
2023-01-11T06:19:20.552Z,10.04
2023-01-11T06:20:20.554Z,10.02
2023-01-11T06:21:20.538Z,9.99
2023-01-11T06:22:20.508Z,10.02
2023-01-11T06:23:20.523Z,10.04
2023-01-11T06:24:20.492Z,10.06
2023-01-11T06:25:20.480Z,10.01
2023-01-11T06:26:20.668Z,10.06
2023-01-11T06:27:20.458Z,10.04
2023-01-11T06:28:20.467Z,10.10
2023-01-11T06:29:20.442Z,10.10
2023-01-11T06:30:20.423Z,10.11
2023-01-11T06:31:20.600Z,10.10
2023-01-11T06:32:20.401Z,10.17
2023-01-11T06:33:20.408Z,10.14
2023-01-11T06:34:20.381Z,10.13
2023-01-11T06:35:20.373Z,10.14
2023-01-11T06:36:20.365Z,10.11
2023-01-11T06:37:20.350Z,10.14
2023-01-11T06:38:20.332Z,10.16
2023-01-11T06:39:20.337Z,10.14
2023-01-11T06:40:20.313Z,10.16
2023-01-11T06:41:20.309Z,10.17
2023-01-11T06:42:20.297Z,10.13
2023-01-11T06:43:20.287Z,10.14
2023-01-11T06:44:20.306Z,10.17
2023-01-11T06:45:20.280Z,10.16
2023-01-11T06:46:20.348Z,10.18
2023-01-11T06:47:20.234Z,10.18
2023-01-11T06:48:20.223Z,10.18
2023-01-11T06:49:20.217Z,10.22
2023-01-11T06:50:20.201Z,10.17
2023-01-11T06:51:20.198Z,10.18
2023-01-11T06:52:20.183Z,10.18
2023-01-11T06:53:20.172Z,10.20
2023-01-11T06:54:20.159Z,10.20
2023-01-11T06:55:20.152Z,10.22
2023-01-11T06:56:20.137Z,10.24
2023-01-11T06:57:20.124Z,10.20
2023-01-11T06:58:20.116Z,10.24
2023-01-11T06:59:20.108Z,10.24
2023-01-11T07:00:20.135Z,10.24
2023-01-11T07:01:20.244Z,10.22
2023-01-11T07:02:20.067Z,10.22
2023-01-11T07:03:20.059Z,10.26
2023-01-11T07:04:20.046Z,10.28
2023-01-11T07:05:20.203Z,10.28
2023-01-11T07:06:20.025Z,10.26
2023-01-11T07:07:20.025Z,10.28
2023-01-11T07:08:20.006Z,10.26
2023-01-11T07:09:19.992Z,10.26
2023-01-11T07:10:19.981Z,10.31
2023-01-11T07:11:20.050Z,10.29
2023-01-11T07:12:19.960Z,10.29
2023-01-11T07:13:19.946Z,10.32
2023-01-11T07:14:19.944Z,10.35
2023-01-11T07:15:19.928Z,10.35
2023-01-11T07:16:19.965Z,10.38
2023-01-11T07:17:19.903Z,10.35
2023-01-11T07:18:19.896Z,10.38
2023-01-11T07:19:19.886Z,10.38
2023-01-11T07:20:19.872Z,10.36
2023-01-11T07:21:19.859Z,10.34
2023-01-11T07:22:19.847Z,10.34
2023-01-11T07:23:19.837Z,10.34
2023-01-11T07:24:19.835Z,10.34
2023-01-11T07:25:19.819Z,10.35
2023-01-11T07:26:19.850Z,10.36
2023-01-11T07:27:19.793Z,10.38
2023-01-11T07:28:19.784Z,10.36
2023-01-11T07:29:19.771Z,10.38
2023-01-11T07:30:19.760Z,10.36
2023-01-11T07:31:19.899Z,10.42
2023-01-11T07:32:19.772Z,10.39
2023-01-11T07:33:19.729Z,10.46
2023-01-11T07:34:19.716Z,10.44
2023-01-11T07:35:19.705Z,10.49
2023-01-11T07:36:19.692Z,10.47
2023-01-11T07:37:28.631Z,10.47
2023-01-11T07:38:20.716Z,10.47
2023-01-11T07:39:19.682Z,10.47
2023-01-11T07:40:19.658Z,10.47
2023-01-11T07:41:19.664Z,10.47
2023-01-11T07:42:19.625Z,10.44
2023-01-11T07:43:19.617Z,10.38
2023-01-11T07:44:19.611Z,10.38
2023-01-11T07:45:19.678Z,10.36
2023-01-11T07:46:19.721Z,10.34
2023-01-11T07:47:19.573Z,10.26
2023-01-11T07:48:19.594Z,10.20
2023-01-11T07:49:19.553Z,10.14
2023-01-11T07:50:19.540Z,9.99
2023-01-11T07:51:19.529Z,9.98
2023-01-11T07:52:19.515Z,9.89
2023-01-11T07:53:19.510Z,9.86
2023-01-11T07:54:19.497Z,9.85
2023-01-11T07:55:19.484Z,9.83
2023-01-11T07:56:19.478Z,9.78
2023-01-11T07:57:19.460Z,9.78
2023-01-11T07:58:19.449Z,9.77
2023-01-11T07:59:19.437Z,9.74
2023-01-11T08:00:19.433Z,9.71
2023-01-11T08:01:19.416Z,9.71
2023-01-11T08:02:19.454Z,9.70
2023-01-11T08:03:19.592Z,9.67
2023-01-11T08:04:19.413Z,9.68
2023-01-11T08:05:19.385Z,9.70
2023-01-11T08:06:19.363Z,9.68
2023-01-11T08:07:19.352Z,9.70
2023-01-11T08:08:19.382Z,9.71
2023-01-11T08:09:19.331Z,9.70
2023-01-11T08:10:19.320Z,9.68
2023-01-11T08:11:19.306Z,9.70
2023-01-11T08:12:19.298Z,9.70
2023-01-11T08:13:19.284Z,9.70
2023-01-11T08:14:19.273Z,9.65
2023-01-11T08:15:19.264Z,9.65
2023-01-11T08:16:19.298Z,9.67
2023-01-11T08:17:19.248Z,9.65
2023-01-11T08:18:19.229Z,9.67
2023-01-11T08:19:19.231Z,9.65
2023-01-11T08:20:19.229Z,9.68
2023-01-11T08:21:19.196Z,9.65
2023-01-11T08:22:19.185Z,9.65
2023-01-11T08:23:19.174Z,9.65
2023-01-11T08:24:19.164Z,9.63
2023-01-11T08:25:19.150Z,9.67
2023-01-11T08:26:19.149Z,9.65
2023-01-11T08:27:19.140Z,9.65
2023-01-11T08:28:19.120Z,9.67
2023-01-11T08:29:19.114Z,9.65
2023-01-11T08:30:19.105Z,9.65
2023-01-11T08:31:19.161Z,9.68
2023-01-11T08:32:19.075Z,9.68
2023-01-11T08:33:19.440Z,9.68
2023-01-11T08:34:19.054Z,9.67
2023-01-11T08:35:19.039Z,9.65
2023-01-11T08:36:19.222Z,9.63
2023-01-11T08:37:19.020Z,9.63
2023-01-11T08:38:19.005Z,9.63
2023-01-11T08:39:19.004Z,9.62
2023-01-11T08:40:18.982Z,9.65
2023-01-11T08:41:18.977Z,9.62
2023-01-11T08:42:18.977Z,9.60
2023-01-11T08:43:18.964Z,9.60
2023-01-11T08:44:29.094Z,9.62
2023-01-11T08:45:18.934Z,9.60
2023-01-11T08:46:18.983Z,9.62
2023-01-11T08:47:18.916Z,9.60
2023-01-11T08:48:18.899Z,9.63
2023-01-11T08:49:18.884Z,9.63
2023-01-11T08:50:18.882Z,9.62
2023-01-11T08:51:18.865Z,9.63
2023-01-11T08:52:18.876Z,9.63
2023-01-11T08:53:18.842Z,9.62
2023-01-11T08:54:18.829Z,9.63
2023-01-11T08:55:18.852Z,9.63
2023-01-11T08:56:18.807Z,9.65
2023-01-11T08:57:18.801Z,9.62
2023-01-11T08:58:20.626Z,9.67
2023-01-11T08:59:19.127Z,9.67
2023-01-11T09:00:18.768Z,9.62
2023-01-11T09:01:19.508Z,9.63
2023-01-11T09:02:18.742Z,9.65
2023-01-11T09:03:18.733Z,9.63
2023-01-11T09:04:25.076Z,9.62
2023-01-11T09:05:19.737Z,9.62
2023-01-11T09:06:18.698Z,9.63
2023-01-11T09:07:18.692Z,9.65
2023-01-11T09:08:18.697Z,9.70
2023-01-11T09:09:18.665Z,9.70
2023-01-11T09:10:18.649Z,9.71
2023-01-11T09:11:18.643Z,9.74
2023-01-11T09:12:18.632Z,9.74
2023-01-11T09:13:18.625Z,9.78
2023-01-11T09:14:18.619Z,9.81
2023-01-11T09:15:18.599Z,9.83
2023-01-11T09:16:18.649Z,9.85
2023-01-11T09:17:18.583Z,9.85
2023-01-11T09:18:18.564Z,9.88
2023-01-11T09:19:18.555Z,9.86
2023-01-11T09:20:18.542Z,9.86
2023-01-11T09:21:18.541Z,9.86
2023-01-11T09:22:18.560Z,9.85
2023-01-11T09:23:18.530Z,9.85
2023-01-11T09:24:18.568Z,9.89
2023-01-11T09:25:18.490Z,9.86
2023-01-11T09:26:18.478Z,9.85
2023-01-11T09:27:18.538Z,9.85
2023-01-11T09:28:18.474Z,9.83
2023-01-11T09:29:18.474Z,9.81
2023-01-11T09:30:18.432Z,9.81
2023-01-11T09:31:18.456Z,9.81
2023-01-11T09:32:18.415Z,9.80
2023-01-11T09:33:18.401Z,9.78
2023-01-11T09:34:18.388Z,9.78
2023-01-11T09:35:18.377Z,9.78
2023-01-11T09:36:18.363Z,9.77
2023-01-11T09:37:18.355Z,9.78
2023-01-11T09:38:18.345Z,9.75
2023-01-11T09:39:18.337Z,9.81
2023-01-11T09:40:18.425Z,9.80
2023-01-11T09:41:18.311Z,9.83
2023-01-11T09:42:18.309Z,9.88
2023-01-11T09:43:18.287Z,9.88
2023-01-11T09:44:18.279Z,9.91
2023-01-11T09:45:18.276Z,9.93
2023-01-11T09:46:18.270Z,9.98
2023-01-11T09:47:18.245Z,9.95
2023-01-11T09:48:18.233Z,9.99
2023-01-11T09:49:18.222Z,10.02
2023-01-11T09:50:18.215Z,10.04
2023-01-11T09:51:18.202Z,10.09
2023-01-11T09:52:18.195Z,10.13
2023-01-11T09:53:18.180Z,10.13
2023-01-11T09:54:18.170Z,10.14
2023-01-11T09:55:18.159Z,10.14
2023-01-11T09:56:18.491Z,10.14
2023-01-11T09:57:18.154Z,10.14
2023-01-11T09:58:18.138Z,10.13
2023-01-11T09:59:18.125Z,10.17
2023-01-11T10:00:18.099Z,10.18
2023-01-11T10:01:18.187Z,10.18
2023-01-11T10:02:18.080Z,10.22
2023-01-11T10:03:18.069Z,10.24
2023-01-11T10:04:18.162Z,10.29
2023-01-11T10:05:18.105Z,10.26
2023-01-11T10:06:18.034Z,10.29
2023-01-11T10:07:18.021Z,10.29
2023-01-11T10:18:31.574Z,10.31
2023-01-11T10:18:31.913Z,10.35
2023-01-11T10:18:32.763Z,10.31
2023-01-11T10:18:38.764Z,10.34
2023-01-11T10:18:41.726Z,10.36
2023-01-11T10:19:34.979Z,10.42
2023-01-11T10:20:19.005Z,10.47
2023-01-11T10:21:17.870Z,10.52
2023-01-11T10:22:17.862Z,10.54
2023-01-11T10:23:17.847Z,10.57
2023-01-11T10:24:17.837Z,10.58
2023-01-11T10:25:17.826Z,10.57
2023-01-11T10:26:17.810Z,10.57
2023-01-11T10:27:17.886Z,10.57
2023-01-11T10:28:17.818Z,10.57
2023-01-11T10:29:17.802Z,10.60
2023-01-11T10:30:17.767Z,10.60
2023-01-11T10:31:17.809Z,10.58
2023-01-11T10:32:17.749Z,10.57
2023-01-11T10:33:17.752Z,10.58
2023-01-11T10:34:17.752Z,10.54
2023-01-11T10:35:17.724Z,10.58
2023-01-11T10:36:17.705Z,10.55
2023-01-11T10:37:17.693Z,10.54
2023-01-11T10:38:17.694Z,10.52
2023-01-11T10:39:17.672Z,10.51
2023-01-11T10:40:17.659Z,10.49
2023-01-11T10:41:17.647Z,10.49
2023-01-11T10:42:17.641Z,10.46
2023-01-11T10:43:17.624Z,10.44
2023-01-11T10:44:17.819Z,10.43
2023-01-11T10:45:17.604Z,10.39
2023-01-11T10:46:17.597Z,10.39
2023-01-11T10:47:17.577Z,10.38
2023-01-11T10:48:17.576Z,10.35
2023-01-11T10:49:17.557Z,10.42
2023-01-11T10:50:17.570Z,10.38
2023-01-11T10:51:17.545Z,10.39
2023-01-11T10:52:17.555Z,10.44
2023-01-11T10:53:17.531Z,10.42
2023-01-11T10:54:17.755Z,10.43
2023-01-11T10:55:17.499Z,10.46
2023-01-11T10:56:17.482Z,10.46
2023-01-11T10:57:17.469Z,10.42
2023-01-11T10:58:17.458Z,10.34
2023-01-11T10:59:17.450Z,10.31
2023-01-11T11:00:17.475Z,10.31
2023-01-11T11:01:17.532Z,10.29
2023-01-11T11:02:17.489Z,10.31
2023-01-11T11:03:17.472Z,10.31
2023-01-11T11:04:17.403Z,10.31
2023-01-11T11:05:17.376Z,10.29
2023-01-11T11:06:17.369Z,10.31
2023-01-11T11:07:17.357Z,10.31
2023-01-11T11:08:17.388Z,10.26
2023-01-11T11:09:17.335Z,10.25
2023-01-11T11:10:17.326Z,10.20
2023-01-11T11:11:17.313Z,10.20
2023-01-11T11:12:17.304Z,10.20
2023-01-11T11:13:17.299Z,10.18
2023-01-11T11:14:17.281Z,10.24
2023-01-11T11:15:17.268Z,10.22
2023-01-11T11:16:17.319Z,10.24
2023-01-11T11:17:17.254Z,10.22
2023-01-11T11:18:17.240Z,10.18
2023-01-11T11:19:17.227Z,10.20
2023-01-11T11:20:17.268Z,10.22
2023-01-11T11:21:17.219Z,10.20
2023-01-11T11:22:17.194Z,10.18
2023-01-11T11:23:17.194Z,10.20
2023-01-11T11:24:17.176Z,10.22
2023-01-11T11:25:17.160Z,10.22
2023-01-11T11:26:17.161Z,10.24
2023-01-11T11:27:17.194Z,10.25
2023-01-11T11:28:17.124Z,10.26
2023-01-11T11:29:17.113Z,10.25
2023-01-11T11:30:17.122Z,10.20
2023-01-11T11:31:17.111Z,10.22
2023-01-11T11:32:17.108Z,10.25
2023-01-11T11:33:17.077Z,10.25
2023-01-11T11:34:17.058Z,10.24
2023-01-11T11:35:17.053Z,10.22
2023-01-11T11:36:17.035Z,10.26
2023-01-11T11:37:17.024Z,10.26
2023-01-11T11:38:17.011Z,10.28
2023-01-11T11:39:17.001Z,10.28
2023-01-11T11:40:16.990Z,10.29
2023-01-11T11:41:17.001Z,10.26
2023-01-11T11:42:16.993Z,10.26
2023-01-11T11:43:16.957Z,10.31
2023-01-11T11:44:16.950Z,10.28
2023-01-11T11:45:16.941Z,10.31
2023-01-11T11:46:20.478Z,10.28
2023-01-11T11:47:16.968Z,10.29
2023-01-11T11:48:16.930Z,10.31
2023-01-11T11:49:16.921Z,10.26
2023-01-11T11:50:20.708Z,10.31
2023-01-11T11:51:17.914Z,10.32
2023-01-11T11:52:16.904Z,10.29
2023-01-11T11:53:16.849Z,10.31
2023-01-11T11:54:16.833Z,10.32
2023-01-11T11:55:16.826Z,10.31
2023-01-11T11:56:16.815Z,10.35
2023-01-11T11:57:16.808Z,10.38
2023-01-11T11:58:16.808Z,10.34
2023-01-11T11:59:16.781Z,10.35
2023-01-11T12:00:16.842Z,10.34
2023-01-11T12:01:16.756Z,10.38
2023-01-11T12:02:16.865Z,10.34
2023-01-11T12:03:16.739Z,10.34
2023-01-11T12:04:16.759Z,10.35
2023-01-11T12:05:16.754Z,10.36
2023-01-11T12:06:16.712Z,10.35
2023-01-11T12:07:16.719Z,10.35
2023-01-11T12:08:16.679Z,10.35
2023-01-11T12:09:16.668Z,10.39
2023-01-11T12:10:16.781Z,10.43
2023-01-11T12:11:16.652Z,10.49
2023-01-11T12:12:16.645Z,10.47
2023-01-11T12:13:16.625Z,10.49
2023-01-11T12:14:16.650Z,10.47
2023-01-11T12:15:16.609Z,10.49
2023-01-11T12:16:16.624Z,10.51
2023-01-11T12:17:16.578Z,10.49
2023-01-11T12:18:16.570Z,10.51
2023-01-11T12:19:16.575Z,10.54
2023-01-11T12:20:16.575Z,10.51
2023-01-11T12:21:16.544Z,10.52
2023-01-11T12:22:16.524Z,10.55
2023-01-11T12:23:16.511Z,10.51
2023-01-11T12:24:16.508Z,10.49
2023-01-11T12:25:16.492Z,10.49
2023-01-11T12:26:16.482Z,10.54
2023-01-11T12:27:16.612Z,10.49
2023-01-11T12:28:16.460Z,10.57
2023-01-11T12:29:16.445Z,10.62
2023-01-11T12:30:19.129Z,10.60
2023-01-11T12:31:16.524Z,10.66
2023-01-11T12:32:16.427Z,10.66
2023-01-11T12:33:16.405Z,10.69
2023-01-11T12:34:16.394Z,10.72
2023-01-11T12:35:16.384Z,10.70
2023-01-11T12:36:16.395Z,10.69
2023-01-11T12:37:16.366Z,10.69
2023-01-11T12:38:16.560Z,10.69
2023-01-11T12:39:16.337Z,10.65
2023-01-11T12:40:16.350Z,10.60
2023-01-11T12:41:16.316Z,10.57
2023-01-11T12:42:16.315Z,10.52
2023-01-11T12:43:16.296Z,10.49
2023-01-11T12:44:16.288Z,10.43
2023-01-11T12:45:16.273Z,10.39
2023-01-11T12:46:16.436Z,10.36
2023-01-11T12:47:17.965Z,10.34
2023-01-11T12:48:16.242Z,10.34
2023-01-11T12:49:16.227Z,10.31
2023-01-11T12:50:16.222Z,10.25
2023-01-11T12:51:16.209Z,10.24
2023-01-11T12:52:16.219Z,10.26
2023-01-11T12:53:16.181Z,10.28
2023-01-11T12:54:16.181Z,10.35
2023-01-11T12:55:16.161Z,10.39
2023-01-11T12:56:16.150Z,10.38
2023-01-11T12:57:16.137Z,10.44
2023-01-11T12:58:16.126Z,10.46
2023-01-11T12:59:16.115Z,10.52
2023-01-11T13:00:16.108Z,10.55
2023-01-11T13:01:16.229Z,10.57
2023-01-11T13:02:16.131Z,10.60
2023-01-11T13:03:16.079Z,10.63
2023-01-11T13:04:16.065Z,10.75
2023-01-11T13:05:16.050Z,10.81
2023-01-11T13:06:16.039Z,10.86
2023-01-11T13:07:16.034Z,10.83
2023-01-11T13:08:16.136Z,10.86
2023-01-11T13:09:16.824Z,10.86
2023-01-11T13:10:16.013Z,10.86
2023-01-11T13:11:16.013Z,10.80
2023-01-11T13:12:15.978Z,10.72
2023-01-11T13:13:15.962Z,10.68
2023-01-11T13:14:15.955Z,10.66